createdAt,value
2023-03-11T00:02:43.352Z,9.91
2023-03-11T00:13:11.269Z,9.89
2023-03-11T00:23:36.860Z,9.89
2023-03-11T00:34:02.603Z,9.86
2023-03-11T00:44:28.088Z,9.84
2023-03-11T00:54:54.156Z,9.76
2023-03-11T01:05:22.483Z,9.65
2023-03-11T01:15:46.588Z,9.58
2023-03-11T01:26:13.017Z,9.53
2023-03-11T01:36:38.841Z,9.47
2023-03-11T01:47:36.390Z,9.29
2023-03-11T01:58:04.259Z,9.09
2023-03-11T02:08:34.178Z,8.91
2023-03-11T02:19:02.688Z,8.72
2023-03-11T02:29:30.514Z,8.56
2023-03-11T02:39:57.086Z,8.46
2023-03-11T02:50:25.468Z,8.45
2023-03-11T03:00:50.790Z,8.34
2023-03-11T03:11:17.062Z,8.22
2023-03-11T03:21:42.652Z,8.13
2023-03-11T03:32:09.087Z,8.01
2023-03-11T03:42:35.292Z,7.86
2023-03-11T03:53:01.742Z,7.56
2023-03-11T04:03:27.728Z,7.38
2023-03-11T04:13:53.507Z,7.26
2023-03-11T04:24:19.047Z,7.05
2023-03-11T04:34:44.771Z,6.89
2023-03-11T04:45:12.345Z,6.72
2023-03-11T04:55:38.141Z,6.36
2023-03-11T05:06:04.028Z,6.08
2023-03-11T05:16:29.881Z,5.96
2023-03-11T05:26:55.764Z,5.96
2023-03-11T05:37:22.028Z,5.88
2023-03-11T07:40:21.560Z,4.89
2023-03-11T07:50:47.343Z,4.45
2023-03-11T08:01:16.215Z,4.12
2023-03-11T08:11:42.590Z,4.07
2023-03-11T08:22:08.484Z,4.05
2023-03-11T08:32:34.248Z,4.02
2023-03-11T08:43:00.359Z,3.91
2023-03-11T08:53:26.140Z,3.79
2023-03-11T09:03:51.890Z,3.60
2023-03-11T09:14:17.984Z,3.45
2023-03-11T09:24:43.731Z,3.31
2023-03-11T09:35:10.887Z,3.23
2023-03-11T09:45:42.069Z,3.15
2023-03-11T09:56:10.462Z,3.02
2023-03-11T10:06:36.811Z,2.96
2023-03-11T10:17:14.468Z,2.89
2023-03-11T10:27:46.985Z,2.78
2023-03-11T10:38:19.692Z,2.79
2023-03-11T10:48:45.683Z,2.68
2023-03-11T10:59:27.035Z,2.60
2023-03-11T11:10:16.582Z,2.62
2023-03-11T11:20:55.152Z,2.63
2023-03-11T11:31:26.784Z,2.52
2023-03-11T11:41:54.135Z,2.55
2023-03-11T11:52:25.539Z,2.52
2023-03-11T12:03:07.799Z,2.47
2023-03-11T12:13:50.993Z,2.43
2023-03-11T12:24:33.982Z,2.38
2023-03-11T12:35:05.971Z,2.36
2023-03-11T12:45:53.361Z,2.38
2023-03-11T12:56:34.844Z,2.25
2023-03-11T13:07:25.832Z,2.24
2023-03-11T13:18:01.879Z,2.31
2023-03-11T13:29:04.112Z,2.34
2023-03-11T13:39:41.436Z,2.30
2023-03-11T13:50:11.498Z,2.32
2023-03-11T14:00:37.792Z,2.29
2023-03-11T14:11:04.917Z,2.28
2023-03-11T14:21:31.849Z,2.26
2023-03-11T14:31:57.946Z,2.27
2023-03-11T14:42:27.373Z,2.41
2023-03-11T14:52:59.132Z,2.55
2023-03-11T15:03:29.289Z,2.56
2023-03-11T15:13:56.853Z,2.51
2023-03-11T15:24:27.224Z,2.46
2023-03-11T15:35:04.744Z,2.40
2023-03-11T15:45:31.701Z,2.42
2023-03-11T15:56:07.431Z,2.44
2023-03-11T16:06:33.655Z,2.42
2023-03-11T16:16:59.054Z,2.35
2023-03-11T16:27:24.595Z,2.35
2023-03-11T16:37:50.767Z,2.27
2023-03-11T16:48:16.752Z,2.20
2023-03-11T16:58:42.464Z,2.08
2023-03-11T17:09:08.040Z,2.03
2023-03-11T17:19:34.561Z,2.01
2023-03-11T17:30:00.783Z,2.04
2023-03-11T17:40:27.167Z,2.04
2023-03-11T17:50:52.687Z,1.99
2023-03-11T18:01:20.408Z,2.01
2023-03-11T18:11:46.296Z,1.92
2023-03-11T18:22:12.394Z,1.97
2023-03-11T18:32:38.492Z,1.96
2023-03-11T18:43:04.237Z,1.89
2023-03-11T18:53:30.244Z,1.86
2023-03-11T19:03:58.227Z,1.87
2023-03-11T19:14:24.393Z,1.91
2023-03-11T19:24:50.059Z,2.04
2023-03-11T19:35:16.925Z,2.17
2023-03-11T19:45:42.739Z,2.13
2023-03-11T19:56:09.413Z,2.24
2023-03-11T20:06:34.824Z,2.20
2023-03-11T20:17:00.616Z,2.13
2023-03-11T20:27:26.249Z,2.24
2023-03-11T20:37:52.123Z,2.39
2023-03-11T20:48:17.720Z,2.54
2023-03-11T20:58:45.706Z,2.69
2023-03-11T21:09:13.014Z,2.70
2023-03-11T21:19:38.943Z,2.84
2023-03-11T21:30:05.151Z,2.88
2023-03-11T21:40:31.222Z,2.70
2023-03-11T21:50:57.121Z,2.33
2023-03-11T22:01:23.111Z,2.17
2023-03-11T22:11:49.480Z,2.02
2023-03-11T22:22:15.784Z,1.94
2023-03-11T22:32:41.632Z,1.91
2023-03-11T22:43:07.940Z,1.96
2023-03-11T22:53:33.673Z,1.83
2023-03-11T23:03:59.318Z,1.80
2023-03-11T23:14:37.802Z,1.87
2023-03-11T23:25:12.226Z,1.74
2023-03-11T23:35:42.878Z,1.79
2023-03-11T23:46:10.347Z,1.76
2023-03-11T23:56:36.196Z,1.80
